sensor_id;sensor_type;location;lat;lon;timestamp;pressure;altitude;pressure_sealevel;temperature;humidity
70971;BME280;58632;51.718;19.446;2023-03-14T00:02:18;97910.95;;;9.13;100.00
70971;BME280;58632;51.718;19.446;2023-03-14T00:04:44;97910.30;;;9.15;100.00
70971;BME280;58632;51.718;19.446;2023-03-14T00:07:10;97910.95;;;9.17;100.00
70971;BME280;58632;51.718;19.446;2023-03-14T00:09:36;97910.05;;;9.22;100.00
70971;BME280;58632;51.718;19.446;2023-03-14T00:12:01;97910.23;;;9.27;100.00
70971;BME280;58632;51.718;19.446;2023-03-14T00:14:28;97915.95;;;9.31;100.00
70971;BME280;58632;51.718;19.446;2023-03-14T00:16:54;97922.94;;;9.34;100.00
70971;BME280;58632;51.718;19.446;2023-03-14T00:19:19;97910.15;;;9.35;100.00
70971;BME280;58632;51.718;19.446;2023-03-14T00:21:45;97911.78;;;9.30;100.00
70971;BME280;58632;51.718;19.446;2023-03-14T00:24:10;97904.02;;;9.29;100.00
70971;BME280;58632;51.718;19.446;2023-03-14T00:26:36;97900.56;;;9.36;100.00
70971;BME280;58632;51.718;19.446;2023-03-14T00:29:02;97894.98;;;9.42;100.00
70971;BME280;58632;51.718;19.446;2023-03-14T00:31:27;97888.50;;;9.41;100.00
70971;BME280;58632;51.718;19.446;2023-03-14T00:33:53;97883.34;;;9.40;100.00
70971;BME280;58632;51.718;19.446;2023-03-14T00:36:18;97875.97;;;9.38;100.00
70971;BME280;58632;51.718;19.446;2023-03-14T00:38:46;97869.67;;;9.36;100.00
70971;BME280;58632;51.718;19.446;2023-03-14T00:41:13;97857.06;;;9.33;100.00
70971;BME280;58632;51.718;19.446;2023-03-14T00:43:39;97850.66;;;9.29;100.00
70971;BME280;58632;51.718;19.446;2023-03-14T00:46:05;97856.98;;;9.25;100.00
70971;BME280;58632;51.718;19.446;2023-03-14T00:48:31;97860.15;;;9.24;100.00
70971;BME280;58632;51.718;19.446;2023-03-14T00:50:57;97865.12;;;9.22;100.00
70971;BME280;58632;51.718;19.446;2023-03-14T00:53:22;97874.17;;;9.19;100.00
70971;BME280;58632;51.718;19.446;2023-03-14T00:55:48;97876.94;;;9.13;100.00
70971;BME280;58632;51.718;19.446;2023-03-14T00:58:15;97867.42;;;9.09;100.00
70971;BME280;58632;51.718;19.446;2023-03-14T01:00:40;97861.86;;;9.08;100.00
70971;BME280;58632;51.718;19.446;2023-03-14T01:03:06;97860.19;;;9.07;100.00
70971;BME280;58632;51.718;19.446;2023-03-14T01:05:32;97864.45;;;9.04;100.00
70971;BME280;58632;51.718;19.446;2023-03-14T01:07:58;97856.19;;;9.01;100.00
70971;BME280;58632;51.718;19.446;2023-03-14T01:10:24;97860.27;;;8.99;100.00
70971;BME280;58632;51.718;19.446;2023-03-14T01:12:49;97860.52;;;8.96;100.00
70971;BME280;58632;51.718;19.446;2023-03-14T01:15:15;97858.39;;;8.95;100.00
70971;BME280;58632;51.718;19.446;2023-03-14T01:17:40;97857.73;;;8.94;100.00
70971;BME280;58632;51.718;19.446;2023-03-14T01:20:07;97855.77;;;8.93;100.00
70971;BME280;58632;51.718;19.446;2023-03-14T01:22:36;97853.88;;;8.88;100.00
70971;BME280;58632;51.718;19.446;2023-03-14T01:25:04;97846.09;;;8.81;100.00
70971;BME280;58632;51.718;19.446;2023-03-14T01:27:29;97845.15;;;8.78;100.00
70971;BME280;58632;51.718;19.446;2023-03-14T01:29:55;97837.99;;;8.75;100.00
70971;BME280;58632;51.718;19.446;2023-03-14T01:32:20;97835.13;;;8.79;100.00
70971;BME280;58632;51.718;19.446;2023-03-14T01:34:46;97825.11;;;8.85;100.00
70971;BME280;58632;51.718;19.446;2023-03-14T01:37:12;97814.24;;;8.87;100.00
70971;BME280;58632;51.718;19.446;2023-03-14T01:39:38;97812.27;;;8.86;100.00
70971;BME280;58632;51.718;19.446;2023-03-14T01:42:03;97809.23;;;8.86;100.00
70971;BME280;58632;51.718;19.446;2023-03-14T01:44:46;97810.59;;;8.84;100.00
70971;BME280;58632;51.718;19.446;2023-03-14T01:47:11;97808.85;;;8.79;100.00
70971;BME280;58632;51.718;19.446;2023-03-14T01:49:37;97819.20;;;8.74;100.00
70971;BME280;58632;51.718;19.446;2023-03-14T01:52:06;97822.92;;;8.66;100.00
70971;BME280;58632;51.718;19.446;2023-03-14T01:54:51;97830.19;;;8.60;100.00
70971;BME280;58632;51.718;19.446;2023-03-14T01:57:37;97825.97;;;8.52;100.00
70971;BME280;58632;51.718;19.446;2023-03-14T02:00:08;97831.60;;;8.43;100.00
70971;BME280;58632;51.718;19.446;2023-03-14T02:02:39;97833.45;;;8.23;100.00
70971;BME280;58632;51.718;19.446;2023-03-14T02:05:06;97829.90;;;8.14;100.00
70971;BME280;58632;51.718;19.446;2023-03-14T02:07:36;97827.40;;;8.11;100.00
70971;BME280;58632;51.718;19.446;2023-03-14T02:10:04;97833.94;;;8.17;100.00
70971;BME280;58632;51.718;19.446;2023-03-14T02:12:30;97831.20;;;8.23;100.00
70971;BME280;58632;51.718;19.446;2023-03-14T02:14:56;97832.48;;;8.28;100.00
70971;BME280;58632;51.718;19.446;2023-03-14T02:17:22;97834.77;;;8.36;100.00
70971;BME280;58632;51.718;19.446;2023-03-14T02:20:03;97843.27;;;8.42;100.00
70971;BME280;58632;51.718;19.446;2023-03-14T02:22:33;97830.94;;;8.44;100.00
70971;BME280;58632;51.718;19.446;2023-03-14T02:27:30;97824.20;;;8.37;100.00
70971;BME280;58632;51.718;19.446;2023-03-14T02:29:57;97821.50;;;8.28;100.00
70971;BME280;58632;51.718;19.446;2023-03-14T02:32:24;97823.41;;;8.20;100.00
70971;BME280;58632;51.718;19.446;2023-03-14T02:34:52;97805.51;;;8.10;100.00
70971;BME280;58632;51.718;19.446;2023-03-14T02:37:19;97816.98;;;8.05;100.00
70971;BME280;58632;51.718;19.446;2023-03-14T02:39:46;97807.89;;;7.99;100.00
70971;BME280;58632;51.718;19.446;2023-03-14T02:42:14;97798.42;;;7.91;100.00
70971;BME280;58632;51.718;19.446;2023-03-14T02:47:14;97789.30;;;7.75;100.00
70971;BME280;58632;51.718;19.446;2023-03-14T02:49:40;97786.52;;;7.69;100.00
70971;BME280;58632;51.718;19.446;2023-03-14T02:52:06;97786.92;;;7.63;100.00
70971;BME280;58632;51.718;19.446;2023-03-14T02:54:32;97785.02;;;7.58;100.00
70971;BME280;58632;51.718;19.446;2023-03-14T02:56:58;97780.48;;;7.54;100.00
70971;BME280;58632;51.718;19.446;2023-03-14T02:59:23;97788.17;;;7.48;100.00
70971;BME280;58632;51.718;19.446;2023-03-14T03:01:49;97783.52;;;7.39;100.00
70971;BME280;58632;51.718;19.446;2023-03-14T03:04:14;97778.54;;;7.30;100.00
70971;BME280;58632;51.718;19.446;2023-03-14T03:06:40;97771.13;;;7.20;100.00
70971;BME280;58632;51.718;19.446;2023-03-14T03:09:07;97780.88;;;7.12;100.00
70971;BME280;58632;51.718;19.446;2023-03-14T03:11:33;97775.39;;;7.02;100.00
70971;BME280;58632;51.718;19.446;2023-03-14T03:13:58;97785.45;;;6.95;100.00
70971;BME280;58632;51.718;19.446;2023-03-14T03:16:24;97771.64;;;6.85;100.00
70971;BME280;58632;51.718;19.446;2023-03-14T03:18:49;97770.41;;;6.79;100.00
70971;BME280;58632;51.718;19.446;2023-03-14T03:21:15;97776.80;;;6.77;100.00
70971;BME280;58632;51.718;19.446;2023-03-14T03:23:41;97769.76;;;6.70;100.00
70971;BME280;58632;51.718;19.446;2023-03-14T03:26:08;97763.31;;;6.65;100.00
70971;BME280;58632;51.718;19.446;2023-03-14T03:28:34;97752.80;;;6.64;100.00
70971;BME280;58632;51.718;19.446;2023-03-14T03:31:06;97753.60;;;6.62;100.00
70971;BME280;58632;51.718;19.446;2023-03-14T03:33:31;97745.61;;;6.60;100.00
70971;BME280;58632;51.718;19.446;2023-03-14T03:35:57;97731.75;;;6.62;100.00
70971;BME280;58632;51.718;19.446;2023-03-14T03:38:22;97724.39;;;6.62;100.00
70971;BME280;58632;51.718;19.446;2023-03-14T03:40:48;97722.93;;;6.63;100.00
70971;BME280;58632;51.718;19.446;2023-03-14T03:43:14;97721.94;;;6.64;100.00
70971;BME280;58632;51.718;19.446;2023-03-14T03:45:39;97712.33;;;6.68;100.00
70971;BME280;58632;51.718;19.446;2023-03-14T03:48:05;97715.23;;;6.71;100.00
70971;BME280;58632;51.718;19.446;2023-03-14T03:50:31;97727.69;;;6.72;100.00
70971;BME280;58632;51.718;19.446;2023-03-14T03:52:56;97735.85;;;6.72;100.00
70971;BME280;58632;51.718;19.446;2023-03-14T03:55:22;97720.79;;;6.69;100.00
70971;BME280;58632;51.718;19.446;2023-03-14T03:57:47;97709.62;;;6.71;100.00
70971;BME280;58632;51.718;19.446;2023-03-14T04:00:13;97702.77;;;6.73;100.00
70971;BME280;58632;51.718;19.446;2023-03-14T04:02:39;97707.14;;;6.73;100.00
70971;BME280;58632;51.718;19.446;2023-03-14T04:05:04;97712.23;;;6.73;100.00
70971;BME280;58632;51.718;19.446;2023-03-14T04:07:33;97707.20;;;6.70;100.00
70971;BME280;58632;51.718;19.446;2023-03-14T04:09:58;97700.67;;;6.68;100.00
70971;BME280;58632;51.718;19.446;2023-03-14T04:12:24;97685.53;;;6.65;100.00
70971;BME280;58632;51.718;19.446;2023-03-14T04:14:50;97681.63;;;6.62;100.00
70971;BME280;58632;51.718;19.446;2023-03-14T04:17:15;97681.61;;;6.61;100.00
70971;BME280;58632;51.718;19.446;2023-03-14T04:19:41;97682.27;;;6.59;100.00
70971;BME280;58632;51.718;19.446;2023-03-14T04:22:07;97681.59;;;6.63;100.00
70971;BME280;58632;51.718;19.446;2023-03-14T04:24:33;97682.30;;;6.66;100.00
70971;BME280;58632;51.718;19.446;2023-03-14T04:26:59;97673.83;;;6.69;100.00
70971;BME280;58632;51.718;19.446;2023-03-14T04:29:24;97656.42;;;6.66;100.00
70971;BME280;58632;51.718;19.446;2023-03-14T04:31:50;97655.77;;;6.65;100.00
70971;BME280;58632;51.718;19.446;2023-03-14T04:34:15;97665.16;;;6.65;100.00
70971;BME280;58632;51.718;19.446;2023-03-14T04:36:41;97654.61;;;6.68;100.00
70971;BME280;58632;51.718;19.446;2023-03-14T04:39:06;97653.40;;;6.69;100.00
70971;BME280;58632;51.718;19.446;2023-03-14T04:41:32;97639.01;;;6.69;100.00
70971;BME280;58632;51.718;19.446;2023-03-14T04:43:57;97637.73;;;6.70;100.00
70971;BME280;58632;51.718;19.446;2023-03-14T04:46:23;97623.56;;;6.76;100.00
70971;BME280;58632;51.718;19.446;2023-03-14T04:48:48;97621.09;;;6.85;100.00
70971;BME280;58632;51.718;19.446;2023-03-14T04:51:14;97625.09;;;6.89;100.00
70971;BME280;58632;51.718;19.446;2023-03-14T04:53:39;97624.11;;;6.91;100.00
70971;BME280;58632;51.718;19.446;2023-03-14T04:56:06;97614.96;;;6.92;100.00
70971;BME280;58632;51.718;19.446;2023-03-14T04:58:32;97616.54;;;6.93;100.00
70971;BME280;58632;51.718;19.446;2023-03-14T05:01:03;97613.29;;;6.96;100.00
70971;BME280;58632;51.718;19.446;2023-03-14T05:03:29;97614.52;;;6.99;100.00
70971;BME280;58632;51.718;19.446;2023-03-14T05:05:55;97613.46;;;7.00;100.00
70971;BME280;58632;51.718;19.446;2023-03-14T05:08:22;97604.07;;;7.04;100.00
70971;BME280;58632;51.718;19.446;2023-03-14T05:10:51;97606.46;;;7.10;100.00
70971;BME280;58632;51.718;19.446;2023-03-14T05:13:17;97607.84;;;7.12;100.00
70971;BME280;58632;51.718;19.446;2023-03-14T05:15:42;97603.43;;;7.16;100.00
70971;BME280;58632;51.718;19.446;2023-03-14T05:18:08;97599.43;;;7.21;100.00
70971;BME280;58632;51.718;19.446;2023-03-14T05:20:33;97593.09;;;7.19;100.00
70971;BME280;58632;51.718;19.446;2023-03-14T05:23:00;97585.27;;;7.21;100.00
70971;BME280;58632;51.718;19.446;2023-03-14T05:25:26;97588.47;;;7.23;100.00
70971;BME280;58632;51.718;19.446;2023-03-14T05:27:55;97589.20;;;7.23;100.00
70971;BME280;58632;51.718;19.446;2023-03-14T05:30:21;97585.58;;;7.25;100.00
70971;BME280;58632;51.718;19.446;2023-03-14T05:32:47;97579.38;;;7.29;100.00
70971;BME280;58632;51.718;19.446;2023-03-14T05:35:12;97573.36;;;7.34;100.00
70971;BME280;58632;51.718;19.446;2023-03-14T05:37:38;97560.84;;;7.42;100.00
70971;BME280;58632;51.718;19.446;2023-03-14T05:40:04;97531.18;;;7.55;100.00
70971;BME280;58632;51.718;19.446;2023-03-14T05:42:32;97542.09;;;7.75;100.00
70971;BME280;58632;51.718;19.446;2023-03-14T05:44:58;97538.69;;;8.11;100.00
70971;BME280;58632;51.718;19.446;2023-03-14T05:47:24;97533.31;;;8.56;100.00
70971;BME280;58632;51.718;19.446;2023-03-14T05:49:50;97538.69;;;9.04;100.00
70971;BME280;58632;51.718;19.446;2023-03-14T05:52:15;97534.25;;;9.53;100.00
70971;BME280;58632;51.718;19.446;2023-03-14T05:54:41;97531.58;;;10.00;100.00
70971;BME280;58632;51.718;19.446;2023-03-14T05:57:06;97525.41;;;10.50;100.00
70971;BME280;58632;51.718;19.446;2023-03-14T05:59:32;97523.98;;;10.91;100.00
70971;BME280;58632;51.718;19.446;2023-03-14T06:01:57;97526.20;;;11.18;100.00
70971;BME280;58632;51.718;19.446;2023-03-14T06:04:23;97528.79;;;11.40;100.00
70971;BME280;58632;51.718;19.446;2023-03-14T06:06:49;97533.53;;;11.63;100.00
70971;BME280;58632;51.718;19.446;2023-03-14T06:09:14;97539.20;;;11.83;100.00
70971;BME280;58632;51.718;19.446;2023-03-14T06:11:40;97546.86;;;11.91;100.00
70971;BME280;58632;51.718;19.446;2023-03-14T06:14:06;97547.83;;;11.70;100.00
70971;BME280;58632;51.718;19.446;2023-03-14T06:16:31;97545.63;;;11.53;100.00
70971;BME280;58632;51.718;19.446;2023-03-14T06:18:57;97546.55;;;11.52;100.00
70971;BME280;58632;51.718;19.446;2023-03-14T06:21:23;97551.13;;;11.59;100.00
70971;BME280;58632;51.718;19.446;2023-03-14T06:23:48;97546.20;;;11.74;100.00
70971;BME280;58632;51.718;19.446;2023-03-14T06:26:14;97540.11;;;11.89;100.00
70971;BME280;58632;51.718;19.446;2023-03-14T06:28:39;97539.89;;;11.93;100.00
70971;BME280;58632;51.718;19.446;2023-03-14T06:31:05;97542.48;;;11.96;100.00
70971;BME280;58632;51.718;19.446;2023-03-14T06:33:31;97544.52;;;11.94;100.00
70971;BME280;58632;51.718;19.446;2023-03-14T06:35:56;97542.81;;;11.95;100.00
70971;BME280;58632;51.718;19.446;2023-03-14T06:38:22;97539.86;;;12.04;100.00
70971;BME280;58632;51.718;19.446;2023-03-14T06:40:47;97532.94;;;12.19;100.00
70971;BME280;58632;51.718;19.446;2023-03-14T06:43:13;97537.92;;;12.35;100.00
70971;BME280;58632;51.718;19.446;2023-03-14T06:45:39;97540.54;;;12.51;100.00
70971;BME280;58632;51.718;19.446;2023-03-14T06:48:05;97539.86;;;12.67;99.66
70971;BME280;58632;51.718;19.446;2023-03-14T06:50:30;97530.00;;;12.82;97.41
70971;BME280;58632;51.718;19.446;2023-03-14T06:52:56;97528.98;;;12.81;96.94
70971;BME280;58632;51.718;19.446;2023-03-14T06:55:21;97529.36;;;12.75;96.12
70971;BME280;58632;51.718;19.446;2023-03-14T06:57:47;97517.13;;;12.67;96.26
70971;BME280;58632;51.718;19.446;2023-03-14T07:00:12;97516.08;;;12.54;95.74
70971;BME280;58632;51.718;19.446;2023-03-14T07:02:38;97521.48;;;12.44;97.80
70971;BME280;58632;51.718;19.446;2023-03-14T07:05:04;97531.73;;;12.37;98.06
70971;BME280;58632;51.718;19.446;2023-03-14T07:07:30;97532.66;;;12.33;99.12
70971;BME280;58632;51.718;19.446;2023-03-14T07:09:56;97537.42;;;12.27;97.96
70971;BME280;58632;51.718;19.446;2023-03-14T07:12:21;97533.19;;;12.24;98.67
70971;BME280;58632;51.718;19.446;2023-03-14T07:14:47;97528.50;;;12.27;98.57
70971;BME280;58632;51.718;19.446;2023-03-14T07:17:12;97529.30;;;12.34;98.32
70971;BME280;58632;51.718;19.446;2023-03-14T07:19:38;97530.16;;;12.41;95.74
70971;BME280;58632;51.718;19.446;2023-03-14T07:22:04;97543.52;;;12.52;98.75
70971;BME280;58632;51.718;19.446;2023-03-14T07:24:30;97549.35;;;12.61;97.96
70971;BME280;58632;51.718;19.446;2023-03-14T07:26:55;97547.16;;;12.65;96.03
70971;BME280;58632;51.718;19.446;2023-03-14T07:29:21;97553.29;;;12.71;95.03
70971;BME280;58632;51.718;19.446;2023-03-14T07:31:46;97567.88;;;12.73;97.12
70971;BME280;58632;51.718;19.446;2023-03-14T07:34:12;97564.91;;;12.86;98.53
70971;BME280;58632;51.718;19.446;2023-03-14T07:36:38;97571.52;;;13.03;98.23
70971;BME280;58632;51.718;19.446;2023-03-14T07:39:04;97584.25;;;13.23;95.85
70971;BME280;58632;51.718;19.446;2023-03-14T07:41:30;97583.15;;;13.48;92.77
70971;BME280;58632;51.718;19.446;2023-03-14T07:43:55;97569.43;;;13.78;91.38
70971;BME280;58632;51.718;19.446;2023-03-14T07:46:21;97569.07;;;14.13;90.40
70971;BME280;58632;51.718;19.446;2023-03-14T07:48:46;97573.70;;;14.51;88.31
70971;BME280;58632;51.718;19.446;2023-03-14T07:51:12;97576.97;;;14.75;84.11
70971;BME280;58632;51.718;19.446;2023-03-14T07:53:37;97576.67;;;14.85;86.51
70971;BME280;58632;51.718;19.446;2023-03-14T07:56:04;97581.95;;;14.85;83.04
70971;BME280;58632;51.718;19.446;2023-03-14T07:58:30;97586.70;;;14.78;80.63
70971;BME280;58632;51.718;19.446;2023-03-14T08:00:55;97577.17;;;14.67;78.49
70971;BME280;58632;51.718;19.446;2023-03-14T08:03:23;97585.05;;;14.47;79.01
70971;BME280;58632;51.718;19.446;2023-03-14T08:05:48;97588.19;;;14.30;80.14
70971;BME280;58632;51.718;19.446;2023-03-14T08:08:14;97586.70;;;14.13;80.01
70971;BME280;58632;51.718;19.446;2023-03-14T08:10:40;97593.91;;;13.93;80.36
70971;BME280;58632;51.718;19.446;2023-03-14T08:13:05;97594.66;;;13.74;82.64
70971;BME280;58632;51.718;19.446;2023-03-14T08:15:31;97596.95;;;13.65;84.40
70971;BME280;58632;51.718;19.446;2023-03-14T08:17:57;97595.95;;;13.60;85.83
70971;BME280;58632;51.718;19.446;2023-03-14T08:20:24;97603.16;;;13.65;87.43
70971;BME280;58632;51.718;19.446;2023-03-14T08:22:49;97606.14;;;13.69;88.21
70971;BME280;58632;51.718;19.446;2023-03-14T08:25:15;97608.74;;;13.69;86.40
70971;BME280;58632;51.718;19.446;2023-03-14T08:27:41;97605.92;;;13.64;87.68
70971;BME280;58632;51.718;19.446;2023-03-14T08:30:08;97590.98;;;13.64;89.12
70971;BME280;58632;51.718;19.446;2023-03-14T08:32:34;97586.35;;;13.69;88.63
70971;BME280;58632;51.718;19.446;2023-03-14T08:34:59;97586.82;;;13.68;87.10
70971;BME280;58632;51.718;19.446;2023-03-14T08:37:25;97587.84;;;13.68;87.55
70971;BME280;58632;51.718;19.446;2023-03-14T08:39:51;97583.98;;;13.78;87.77
70971;BME280;58632;51.718;19.446;2023-03-14T08:42:17;97583.68;;;13.97;89.04
70971;BME280;58632;51.718;19.446;2023-03-14T08:44:43;97567.70;;;14.23;88.16
70971;BME280;58632;51.718;19.446;2023-03-14T08:47:08;97563.42;;;14.46;85.13
70971;BME280;58632;51.718;19.446;2023-03-14T08:49:34;97567.39;;;14.59;82.95
70971;BME280;58632;51.718;19.446;2023-03-14T08:52:01;97569.28;;;14.72;81.56
70971;BME280;58632;51.718;19.446;2023-03-14T08:54:27;97574.59;;;14.80;82.59
70971;BME280;58632;51.718;19.446;2023-03-14T08:56:52;97576.84;;;14.84;81.98
70971;BME280;58632;51.718;19.446;2023-03-14T08:59:18;97571.69;;;14.76;80.38
70971;BME280;58632;51.718;19.446;2023-03-14T09:01:43;97571.96;;;14.69;80.88
70971;BME280;58632;51.718;19.446;2023-03-14T09:04:09;97573.73;;;14.65;80.83
70971;BME280;58632;51.718;19.446;2023-03-14T09:06:35;97575.33;;;14.61;81.53
70971;BME280;58632;51.718;19.446;2023-03-14T09:09:01;97575.48;;;14.63;82.57
70971;BME280;58632;51.718;19.446;2023-03-14T09:11:26;97575.60;;;14.67;82.53
70971;BME280;58632;51.718;19.446;2023-03-14T09:13:51;97554.25;;;14.70;81.95
70971;BME280;58632;51.718;19.446;2023-03-14T09:16:17;97545.71;;;14.76;82.45
70971;BME280;58632;51.718;19.446;2023-03-14T09:18:43;97558.72;;;14.85;83.39
70971;BME280;58632;51.718;19.446;2023-03-14T09:21:08;97577.85;;;14.97;81.58
70971;BME280;58632;51.718;19.446;2023-03-14T09:23:34;97585.97;;;15.06;79.06
70971;BME280;58632;51.718;19.446;2023-03-14T09:26:00;97586.20;;;15.16;80.14
70971;BME280;58632;51.718;19.446;2023-03-14T09:28:25;97591.47;;;15.27;75.41
70971;BME280;58632;51.718;19.446;2023-03-14T09:30:51;97582.62;;;15.31;77.87
70971;BME280;58632;51.718;19.446;2023-03-14T09:33:17;97579.10;;;15.46;77.25
70971;BME280;58632;51.718;19.446;2023-03-14T09:35:42;97582.90;;;15.62;75.54
70971;BME280;58632;51.718;19.446;2023-03-14T09:38:08;97591.19;;;15.71;72.83
70971;BME280;58632;51.718;19.446;2023-03-14T09:40:34;97591.77;;;15.58;71.39
70971;BME280;58632;51.718;19.446;2023-03-14T09:43:00;97583.36;;;15.46;70.57
70971;BME280;58632;51.718;19.446;2023-03-14T09:45:31;97575.13;;;15.40;71.99
70971;BME280;58632;51.718;19.446;2023-03-14T09:47:58;97573.14;;;15.43;75.16
70971;BME280;58632;51.718;19.446;2023-03-14T09:50:24;97562.92;;;15.57;76.06
70971;BME280;58632;51.718;19.446;2023-03-14T09:52:51;97552.73;;;15.69;74.25
70971;BME280;58632;51.718;19.446;2023-03-14T09:55:21;97552.08;;;15.72;73.59
70971;BME280;58632;51.718;19.446;2023-03-14T09:57:47;97554.59;;;15.74;72.28
70971;BME280;58632;51.718;19.446;2023-03-14T10:00:14;97546.31;;;15.74;72.61
70971;BME280;58632;51.718;19.446;2023-03-14T10:05:32;97556.67;;;15.59;71.64
70971;BME280;58632;51.718;19.446;2023-03-14T10:07:58;97560.70;;;15.51;72.32
70971;BME280;58632;51.718;19.446;2023-03-14T10:10:24;97548.48;;;15.43;72.17
70971;BME280;58632;51.718;19.446;2023-03-14T10:13:11;97545.63;;;15.37;73.09
70971;BME280;58632;51.718;19.446;2023-03-14T10:15:39;97540.10;;;15.37;74.31
70971;BME280;58632;51.718;19.446;2023-03-14T10:18:09;97544.83;;;15.39;76.11
70971;BME280;58632;51.718;19.446;2023-03-14T10:20:41;97548.30;;;15.37;74.70
70971;BME280;58632;51.718;19.446;2023-03-14T10:25:43;97571.69;;;15.19;74.95
70971;BME280;58632;51.718;19.446;2023-03-14T10:28:26;97573.76;;;14.97;75.57
70971;BME280;58632;51.718;19.446;2023-03-14T10:30:51;97573.62;;;14.82;78.22
70971;BME280;58632;51.718;19.446;2023-03-14T10:33:27;97576.09;;;14.89;80.77
70971;BME280;58632;51.718;19.446;2023-03-14T10:35:54;97582.13;;;15.03;80.22
70971;BME280;58632;51.718;19.446;2023-03-14T10:38:21;97574.00;;;15.05;78.64
70971;BME280;58632;51.718;19.446;2023-03-14T10:40:48;97573.89;;;14.99;78.08
70971;BME280;58632;51.718;19.446;2023-03-14T10:43:18;97573.41;;;14.90;77.98
70971;BME280;58632;51.718;19.446;2023-03-14T10:45:51;97575.25;;;14.86;81.04
70971;BME280;58632;51.718;19.446;2023-03-14T10:50:49;97580.04;;;14.63;80.75
70971;BME280;58632;51.718;19.446;2023-03-14T10:53:19;97585.85;;;14.41;81.81
70971;BME280;58632;51.718;19.446;2023-03-14T10:55:44;97589.44;;;14.17;82.65
70971;BME280;58632;51.718;19.446;2023-03-14T10:58:19;97595.09;;;13.94;84.99
70971;BME280;58632;51.718;19.446;2023-03-14T11:00:47;97594.29;;;13.71;86.63
70971;BME280;58632;51.718;19.446;2023-03-14T11:03:15;97593.84;;;13.47;88.94
70971;BME280;58632;51.718;19.446;2023-03-14T11:08:27;97603.79;;;13.09;93.62
70971;BME280;58632;51.718;19.446;2023-03-14T11:11:18;97601.73;;;12.94;95.27
70971;BME280;58632;51.718;19.446;2023-03-14T11:13:54;97599.13;;;12.84;96.77
70971;BME280;58632;51.718;19.446;2023-03-14T11:16:25;97599.35;;;12.76;98.91
70971;BME280;58632;51.718;19.446;2023-03-14T11:21:19;97603.24;;;12.60;100.00
70971;BME280;58632;51.718;19.446;2023-03-14T11:26:37;97614.83;;;12.32;100.00
70971;BME280;58632;51.718;19.446;2023-03-14T11:31:52;97637.21;;;12.04;100.00
70971;BME280;58632;51.718;19.446;2023-03-14T11:34:27;97640.88;;;11.90;100.00
70971;BME280;58632;51.718;19.446;2023-03-14T11:37:01;97641.31;;;11.77;100.00
70971;BME280;58632;51.718;19.446;2023-03-14T11:39:32;97649.18;;;11.70;100.00
70971;BME280;58632;51.718;19.446;2023-03-14T11:42:02;97647.48;;;11.62;100.00
70971;BME280;58632;51.718;19.446;2023-03-14T11:44:30;97644.89;;;11.61;100.00
70971;BME280;58632;51.718;19.446;2023-03-14T11:47:08;97645.75;;;11.59;100.00
70971;BME280;58632;51.718;19.446;2023-03-14T11:49:48;97644.80;;;11.58;100.00
70971;BME280;58632;51.718;19.446;2023-03-14T11:52:34;97644.16;;;11.56;100.00
70971;BME280;58632;51.718;19.446;2023-03-14T11:55:05;97637.32;;;11.54;100.00
70971;BME280;58632;51.718;19.446;2023-03-14T11:57:32;97629.84;;;11.59;100.00
70971;BME280;58632;51.718;19.446;2023-03-14T12:00:02;97637.02;;;11.66;100.00
70971;BME280;58632;51.718;19.446;2023-03-14T12:08:16;97631.39;;;11.68;100.00
70971;BME280;58632;51.718;19.446;2023-03-14T12:13:16;97623.23;;;11.65;100.00
70971;BME280;58632;51.718;19.446;2023-03-14T12:15:49;97624.36;;;11.59;100.00
70971;BME280;58632;51.718;19.446;2023-03-14T12:18:25;97621.64;;;11.51;100.00
70971;BME280;58632;51.718;19.446;2023-03-14T12:20:56;97619.80;;;11.46;100.00
70971;BME280;58632;51.718;19.446;2023-03-14T12:23:22;97615.90;;;11.48;100.00
70971;BME280;58632;51.718;19.446;2023-03-14T12:25:57;97609.80;;;11.48;100.00
70971;BME280;58632;51.718;19.446;2023-03-14T12:28:31;97602.27;;;11.47;100.00
70971;BME280;58632;51.718;19.446;2023-03-14T12:30:57;97593.31;;;11.54;100.00
70971;BME280;58632;51.718;19.446;2023-03-14T12:33:42;97594.69;;;11.61;100.00
70971;BME280;58632;51.718;19.446;2023-03-14T12:36:12;97601.70;;;11.67;100.00
70971;BME280;58632;51.718;19.446;2023-03-14T12:38:49;97604.16;;;11.74;100.00
70971;BME280;58632;51.718;19.446;2023-03-14T12:41:21;97604.28;;;11.78;100.00
70971;BME280;58632;51.718;19.446;2023-03-14T12:43:48;97596.86;;;11.82;100.00
70971;BME280;58632;51.718;19.446;2023-03-14T12:48:49;97586.21;;;11.84;100.00
70971;BME280;58632;51.718;19.446;2023-03-14T12:51:17;97584.65;;;11.72;100.00
70971;BME280;58632;51.718;19.446;2023-03-14T13:01:03;97569.04;;;11.19;100.00
70971;BME280;58632;51.718;19.446;2023-03-14T13:03:50;97562.07;;;11.09;100.00
70971;BME280;58632;51.718;19.446;2023-03-14T13:11:46;97547.63;;;10.86;100.00
70971;BME280;58632;51.718;19.446;2023-03-14T13:14:12;97553.27;;;10.86;100.00
70971;BME280;58632;51.718;19.446;2023-03-14T13:16:38;97563.44;;;10.86;100.00
70971;BME280;58632;51.718;19.446;2023-03-14T13:19:09;97571.14;;;10.81;100.00
70971;BME280;58632;51.718;19.446;2023-03-14T13:21:38;97577.46;;;10.79;100.00
70971;BME280;58632;51.718;19.446;2023-03-14T13:24:05;97575.67;;;10.75;100.00
70971;BME280;58632;51.718;19.446;2023-03-14T13:26:37;97567.44;;;10.70;100.00
70971;BME280;58632;51.718;19.446;2023-03-14T13:31:45;97575.59;;;10.64;100.00
70971;BME280;58632;51.718;19.446;2023-03-14T13:34:11;97573.38;;;10.63;100.00
70971;BME280;58632;51.718;19.446;2023-03-14T13:36:37;97563.08;;;10.64;100.00
70971;BME280;58632;51.718;19.446;2023-03-14T13:39:03;97559.25;;;10.66;100.00